Terminal Aerodrome Forecast
Issued by NWS

Home | Current Version | Previous Version | Text Only | Print | Product List | Glossary On
Versions: 1 2 3 4 5 6 7 8 9 10 11 12 13
363
FTUS44 KTSA 132320
TAFFYV
TAF
KFYV 132320Z 1400/1424 14008KT P6SM BKN250
     FM140600 15010KT P6SM OVC050
     FM141200 17008KT 4SM -FZDZ OVC015
     FM141600 18007KT 4SM -DZ BR OVC007
     FM142100 18005KT P6SM OVC010=

USA.gov is the U.S. government's official web portal to all federal, state and local government web resources and services.